Time;durP1;ratioP1;P1;durP2;ratioP2;P2;SDS_P1;SDS_P2;PMS_P1;PMS_P2;Temp;Humidity;BMP_temperature;BMP_pressure;BME280_temperature;BME280_humidity;BME280_pressure;Samples;Min_cycle;Max_cycle;Signal;HPM_P1;HPM_P2
2023/11/08 00:01:35;;;;;;;6.60;5.90;;;;;;;20.89;57.38;97829.98;107340;1278;59755;-51
2023/11/08 00:04:02;;;;;;;8.00;5.70;;;;;;;20.90;57.36;97821.14;107331;1278;59800;-51
2023/11/08 00:06:29;;;;;;;6.20;5.20;;;;;;;20.91;57.30;97818.83;107305;1278;66391;-51
2023/11/08 00:08:58;;;;;;;6.70;5.60;;;;;;;20.92;57.29;97823.28;107291;1278;71314;-50
2023/11/08 00:11:25;;;;;;;6.90;5.40;;;;;;;20.94;57.15;97816.84;103492;1282;62101;-50
2023/11/08 00:13:52;;;;;;;6.00;5.30;;;;;;;20.95;57.36;97815.55;103822;1280;62170;-50
2023/11/08 00:16:18;;;;;;;6.90;5.50;;;;;;;20.96;57.17;97812.38;103821;1280;75369;-50
2023/11/08 00:18:45;;;;;;;7.30;5.60;;;;;;;20.96;57.17;97810.20;103864;1282;66057;-51
2023/11/08 00:21:12;;;;;;;6.70;5.70;;;;;;;20.95;57.05;97801.02;103739;1280;72652;-49
2023/11/08 00:23:39;;;;;;;6.60;5.50;;;;;;;20.96;57.16;97793.16;103517;1282;62075;-50
2023/11/08 00:26:06;;;;;;;6.00;5.40;;;;;;;20.95;57.09;97789.42;103754;1280;62144;-50
2023/11/08 00:28:34;;;;;;;6.10;5.50;;;;;;;20.95;57.09;97780.07;103919;1278;75502;-49
2023/11/08 00:31:01;;;;;;;5.80;5.20;;;;;;;20.94;57.02;97773.44;103520;1282;65252;-50
2023/11/08 00:33:28;;;;;;;6.70;5.60;;;;;;;20.94;57.12;97765.66;103607;1280;72641;-50
2023/11/08 00:35:54;;;;;;;8.10;5.40;;;;;;;20.93;57.01;97757.56;103492;1282;62104;-50
2023/11/08 00:38:21;;;;;;;6.60;5.60;;;;;;;20.93;57.04;97758.09;103485;1280;62238;-50
2023/11/08 00:40:47;;;;;;;6.30;5.70;;;;;;;20.92;57.17;97757.55;103533;1280;62161;-50
2023/11/08 00:43:14;;;;;;;6.70;5.60;;;;;;;20.91;57.04;97755.98;103768;1280;62181;-50
2023/11/08 00:45:41;;;;;;;9.00;5.60;;;;;;;20.91;57.14;97751.14;103682;1280;72896;-49
2023/11/08 00:48:07;;;;;;;7.10;5.60;;;;;;;20.90;56.97;97749.81;103436;1282;62099;-50
2023/11/08 00:50:34;;;;;;;6.20;5.70;;;;;;;20.89;57.11;97743.02;103583;1280;62108;-50
2023/11/08 00:53:02;;;;;;;5.80;5.20;;;;;;;20.89;57.13;97747.78;103626;1280;75455;-50
2023/11/08 00:55:29;;;;;;;5.60;5.10;;;;;;;20.89;57.00;97745.83;103988;1282;66075;-50
2023/11/08 00:57:56;;;;;;;6.20;5.30;;;;;;;20.88;57.10;97745.80;103621;1279;72399;-51
2023/11/08 01:00:24;;;;;;;8.00;5.50;;;;;;;20.88;57.18;97740.20;103715;1283;62922;-51
2023/11/08 01:02:51;;;;;;;5.60;5.00;;;;;;;20.88;57.12;97733.36;103696;1280;62106;-50
2023/11/08 01:05:19;;;;;;;6.30;5.60;;;;;;;20.87;57.16;97731.09;103616;1282;75449;-50
2023/11/08 01:07:47;;;;;;;5.80;5.20;;;;;;;20.87;57.05;97725.26;103589;1282;65890;-50
2023/11/08 01:10:16;;;;;;;9.80;5.60;;;;;;;20.87;57.12;97716.70;103501;1280;72699;-50
2023/11/08 01:12:43;;;;;;;8.50;5.30;;;;;;;20.86;57.00;97712.98;103594;1282;62115;-50
2023/11/08 01:15:10;;;;;;;5.80;5.20;;;;;;;20.86;57.07;97709.14;103655;1279;62113;-50
2023/11/08 01:17:37;;;;;;;6.10;5.20;;;;;;;20.85;57.13;97701.28;103659;1280;75465;-50
2023/11/08 01:20:04;;;;;;;5.80;5.20;;;;;;;20.85;56.96;97699.73;103658;1280;66411;-50
2023/11/08 01:22:31;;;;;;;7.10;5.60;;;;;;;20.84;57.21;97700.18;103945;1279;72367;-50
2023/11/08 01:24:57;;;;;;;9.30;5.80;;;;;;;20.84;57.02;97696.45;103715;1282;62082;-50
2023/11/08 01:27:24;;;;;;;6.90;5.40;;;;;;;20.84;57.08;97690.45;103548;1279;62086;-50
2023/11/08 01:29:51;;;;;;;6.40;5.40;;;;;;;20.84;57.07;97684.39;103590;1282;75339;-50
2023/11/08 01:32:17;;;;;;;8.20;5.50;;;;;;;20.83;57.03;97690.90;103612;1282;65998;-49
2023/11/08 01:34:44;;;;;;;5.40;4.90;;;;;;;20.83;57.11;97687.56;103406;1280;72675;-50
2023/11/08 01:37:10;;;;;;;6.40;5.50;;;;;;;20.83;57.07;97684.75;103457;1282;62142;-50
2023/11/08 01:39:37;;;;;;;6.30;5.70;;;;;;;20.83;57.10;97690.66;103519;1280;62139;-50
2023/11/08 01:42:04;;;;;;;5.70;5.00;;;;;;;20.83;57.08;97690.05;103368;1285;75652;-49
2023/11/08 01:44:30;;;;;;;6.60;4.80;;;;;;;20.82;57.14;97690.96;103700;1282;66075;-50
2023/11/08 01:46:58;;;;;;;5.80;5.20;;;;;;;20.82;56.97;97694.16;103620;1279;72662;-50
2023/11/08 01:49:25;;;;;;;6.00;5.40;;;;;;;20.82;57.07;97687.78;104600;1278;62112;-51
2023/11/08 01:51:53;;;;;;;5.90;5.10;;;;;;;20.82;57.01;97679.92;107377;1278;59686;-49
2023/11/08 01:54:19;;;;;;;5.90;5.30;;;;;;;20.82;57.07;97676.42;107342;1280;74236;-49
2023/11/08 01:56:46;;;;;;;7.00;5.30;;;;;;;20.83;57.04;97670.77;105715;1283;65107;-52
2023/11/08 01:59:24;;;;;;;5.50;5.00;;;;;;;20.84;56.98;97672.09;103674;1280;72476;-51
2023/11/08 02:01:51;;;;;;;5.70;5.00;;;;;;;20.85;56.84;97673.66;103751;1283;62082;-50
2023/11/08 02:04:18;;;;;;;6.90;5.30;;;;;;;20.84;57.00;97677.33;103697;1279;62142;-50
2023/11/08 02:06:44;;;;;;;6.10;5.50;;;;;;;20.86;56.96;97679.58;103698;1280;75483;-50
2023/11/08 02:09:11;;;;;;;7.40;5.60;;;;;;;20.85;56.96;97673.83;103595;1282;66093;-50
2023/11/08 02:11:40;;;;;;;5.70;5.10;;;;;;;20.85;57.03;97668.70;103521;1279;73189;-50
2023/11/08 02:14:07;;;;;;;5.90;4.90;;;;;;;20.85;56.92;97666.20;103647;1282;62249;-50
2023/11/08 02:16:33;;;;;;;5.70;5.10;;;;;;;20.84;56.90;97666.20;103616;1280;62178;-50
2023/11/08 02:19:01;;;;;;;6.30;5.30;;;;;;;20.85;56.88;97664.95;103674;1282;75485;-50
2023/11/08 02:21:28;;;;;;;7.10;5.40;;;;;;;20.84;56.89;97663.31;103537;1278;66122;-50
2023/11/08 02:23:55;;;;;;;5.60;4.90;;;;;;;20.84;56.91;97663.08;103513;1280;72481;-50
2023/11/08 02:26:21;;;;;;;5.20;4.70;;;;;;;20.83;56.75;97661.50;103537;1282;62127;-50
2023/11/08 02:28:48;;;;;;;6.20;5.60;;;;;;;20.83;56.88;97666.95;103457;1281;62172;-50
2023/11/08 02:31:17;;;;;;;6.00;5.40;;;;;;;20.83;56.92;97663.98;103587;1282;75361;-50
2023/11/08 02:33:43;;;;;;;5.40;4.90;;;;;;;20.82;56.90;97662.05;103830;1282;66246;-50
2023/11/08 02:36:10;;;;;;;5.60;4.80;;;;;;;20.82;56.92;97660.87;103773;1280;72770;-51
2023/11/08 02:38:37;;;;;;;6.00;5.40;;;;;;;20.81;56.89;97661.02;103463;1282;62097;-50
2023/11/08 02:41:03;;;;;;;6.30;5.40;;;;;;;20.82;56.87;97665.52;103429;1280;62186;-50
2023/11/08 02:43:31;;;;;;;5.60;5.00;;;;;;;20.80;57.00;97665.75;103641;1280;75465;-50
2023/11/08 02:45:58;;;;;;;6.20;4.60;;;;;;;20.81;57.01;97662.02;103604;1282;66168;-50
2023/11/08 02:48:24;;;;;;;7.20;5.30;;;;;;;20.80;56.81;97666.83;103503;1280;72494;-50
2023/11/08 02:50:51;;;;;;;8.40;5.10;;;;;;;20.81;56.82;97672.59;103585;1282;62095;-50
2023/11/08 02:53:20;;;;;;;6.00;5.40;;;;;;;20.80;56.73;97666.52;103551;1278;62181;-50
2023/11/08 02:55:47;;;;;;;6.50;5.30;;;;;;;20.80;56.93;97657.57;103584;1282;75420;-50
2023/11/08 02:58:13;;;;;;;6.10;5.50;;;;;;;20.80;56.86;97658.34;103610;1282;66121;-50
2023/11/08 03:00:40;;;;;;;6.40;5.30;;;;;;;20.79;56.90;97656.47;103718;1280;72947;-49
2023/11/08 03:03:07;;;;;;;5.90;5.20;;;;;;;20.79;56.87;97659.73;103868;1280;62117;-50
2023/11/08 03:05:33;;;;;;;5.60;5.10;;;;;;;20.79;56.89;97670.85;104131;1278;62165;-50
2023/11/08 03:08:00;;;;;;;5.60;5.10;;;;;;;20.79;56.87;97665.32;103852;1281;75476;-52
2023/11/08 03:10:26;;;;;;;5.80;5.20;;;;;;;20.79;56.78;97667.51;103611;1282;66095;-50
2023/11/08 03:12:54;;;;;;;6.10;5.30;;;;;;;20.78;56.92;97666.95;103515;1280;72478;-50
2023/11/08 03:15:21;;;;;;;6.80;5.30;;;;;;;20.78;56.81;97664.92;104286;1279;62104;-50
2023/11/08 03:17:51;;;;;;;5.40;4.80;;;;;;;20.78;56.86;97661.89;103670;1280;62095;-50
2023/11/08 03:20:18;;;;;;;5.50;4.80;;;;;;;20.78;56.89;97659.55;103614;1282;75458;-50
2023/11/08 03:22:45;;;;;;;7.00;5.20;;;;;;;20.78;56.85;97659.64;103608;1280;65422;-50
2023/11/08 03:25:13;;;;;;;5.90;5.30;;;;;;;20.78;56.97;97655.73;103902;1278;72572;-50
2023/11/08 03:27:41;;;;;;;6.60;5.70;;;;;;;20.78;56.77;97648.35;103648;1283;62081;-50
2023/11/08 03:30:10;;;;;;;5.60;5.00;;;;;;;20.78;56.72;97641.42;103515;1282;62019;-50
2023/11/08 03:32:37;;;;;;;7.00;5.10;;;;;;;20.77;56.83;97637.31;103350;1280;74088;-50
2023/11/08 03:35:05;;;;;;;6.00;5.00;;;;;;;20.77;56.74;97633.41;103527;1282;66129;-50
2023/11/08 03:37:38;;;;;;;6.00;5.40;;;;;;;20.77;56.83;97633.58;103742;1280;72636;-50
2023/11/08 03:40:06;;;;;;;6.50;5.20;;;;;;;20.77;56.86;97633.58;103607;1279;62120;-51
2023/11/08 03:42:34;;;;;;;5.80;5.10;;;;;;;20.77;56.83;97631.94;103661;1280;62153;-50
2023/11/08 03:45:04;;;;;;;5.50;4.90;;;;;;;20.77;56.81;97629.61;103707;1280;75258;-50
2023/11/08 03:47:32;;;;;;;6.00;4.90;;;;;;;20.77;56.77;97626.19;103919;1282;66021;-50
2023/11/08 03:49:59;;;;;;;5.70;5.10;;;;;;;20.77;56.78;97619.73;103829;1280;73075;-50
2023/11/08 03:52:27;;;;;;;6.20;5.60;;;;;;;20.76;56.76;97621.04;103651;1282;61993;-50
2023/11/08 03:54:53;;;;;;;5.40;4.90;;;;;;;20.76;56.73;97622.20;103749;1280;62197;-50
2023/11/08 03:57:20;;;;;;;6.70;5.10;;;;;;;20.76;56.82;97625.92;103915;1282;75308;-50
2023/11/08 03:59:49;;;;;;;6.50;5.20;;;;;;;20.76;56.79;97632.00;103899;1282;65993;-50
2023/11/08 04:02:20;;;;;;;5.70;5.00;;;;;;;20.76;56.87;97632.16;103673;1280;72436;-50
2023/11/08 04:04:47;;;;;;;5.90;5.30;;;;;;;20.76;56.82;97634.56;103473;1282;62097;-50
2023/11/08 04:07:14;;;;;;;5.80;5.00;;;;;;;20.76;56.74;97630.98;103495;1279;62094;-50
2023/11/08 04:09:41;;;;;;;5.30;4.80;;;;;;;20.75;56.76;97627.09;103427;1278;75151;-50
2023/11/08 04:12:09;;;;;;;6.20;5.40;;;;;;;20.75;56.68;97629.66;103498;1282;66174;-50
2023/11/08 04:14:37;;;;;;;5.40;4.80;;;;;;;20.76;56.76;97627.71;103592;1280;72679;-50
2023/11/08 04:17:04;;;;;;;5.50;5.00;;;;;;;20.76;56.67;97624.68;103589;1282;61970;-50
2023/11/08 04:19:31;;;;;;;6.10;5.20;;;;;;;20.76;56.69;97625.15;103463;1280;62156;-50
2023/11/08 04:21:58;;;;;;;5.30;4.80;;;;;;;20.75;56.65;97618.61;103612;1281;75280;-50
2023/11/08 04:24:25;;;;;;;8.10;5.40;;;;;;;20.75;56.75;97612.23;103845;1280;66230;-50
2023/11/08 04:26:52;;;;;;;4.80;4.10;;;;;;;20.76;56.84;97612.95;103654;1280;72468;-50
2023/11/08 04:29:19;;;;;;;8.20;5.30;;;;;;;20.76;56.90;97611.15;103613;1279;62085;-51
2023/11/08 04:31:46;;;;;;;5.40;4.90;;;;;;;20.76;56.59;97609.14;106311;1279;62089;-52
2023/11/08 04:34:13;;;;;;;6.40;5.00;;;;;;;20.76;56.60;97606.89;107292;1278;74110;-51
2023/11/08 04:36:39;;;;;;;6.10;4.90;;;;;;;20.77;56.84;97600.59;107399;1280;64986;-51
2023/11/08 04:39:07;;;;;;;6.40;4.60;;;;;;;20.78;56.72;97600.47;104364;1280;70337;-52
2023/11/08 04:41:38;;;;;;;5.10;4.60;;;;;;;20.79;56.76;97600.86;103899;1282;62014;-51
2023/11/08 04:44:05;;;;;;;5.30;4.80;;;;;;;20.80;56.67;97596.13;103885;1280;62263;-52
2023/11/08 04:46:32;;;;;;;6.40;4.80;;;;;;;20.80;56.72;97594.66;103921;1280;75472;-51
2023/11/08 04:48:58;;;;;;;5.10;4.60;;;;;;;20.81;56.75;97590.55;103770;1282;64119;-50
2023/11/08 04:51:25;;;;;;;5.20;4.70;;;;;;;20.81;56.65;97589.46;103845;1279;72850;-50
2023/11/08 04:53:52;;;;;;;5.20;4.70;;;;;;;20.81;56.52;97590.94;103538;1282;62140;-50
2023/11/08 04:56:19;;;;;;;5.80;4.70;;;;;;;20.81;56.49;97592.18;103852;1280;62143;-50
2023/11/08 04:58:46;;;;;;;5.40;4.90;;;;;;;20.81;56.62;97584.48;103772;1282;75399;-50
2023/11/08 05:01:13;;;;;;;5.10;4.30;;;;;;;20.81;56.49;97585.98;103674;1280;66130;-51
2023/11/08 05:03:39;;;;;;;5.30;4.80;;;;;;;20.81;56.70;97584.71;103557;1279;72724;-51
2023/11/08 05:06:06;;;;;;;5.60;4.60;;;;;;;20.81;56.55;97581.52;103493;1283;62073;-50
2023/11/08 05:08:33;;;;;;;5.20;4.70;;;;;;;20.81;56.66;97579.27;103495;1280;62216;-51
2023/11/08 05:11:00;;;;;;;5.10;4.60;;;;;;;20.81;56.61;97580.05;103519;1281;75203;-50
2023/11/08 05:13:26;;;;;;;6.00;5.10;;;;;;;20.81;56.47;97578.10;103721;1282;65864;-51
2023/11/08 05:15:53;;;;;;;5.70;4.80;;;;;;;20.80;56.58;97572.18;103455;1280;72641;-51
2023/11/08 05:18:20;;;;;;;4.90;4.50;;;;;;;20.80;56.60;97566.20;103421;1282;62347;-51
2023/11/08 05:20:46;;;;;;;6.00;4.50;;;;;;;20.81;56.57;97568.94;106047;1279;59798;-50
2023/11/08 05:23:13;;;;;;;5.30;4.80;;;;;;;20.81;56.60;97564.89;103729;1280;75472;-50
2023/11/08 05:25:40;;;;;;;5.30;4.60;;;;;;;20.81;56.60;97566.45;103668;1282;66115;-52
2023/11/08 05:28:06;;;;;;;6.50;4.90;;;;;;;20.82;56.62;97566.39;103621;1280;73149;-52
2023/11/08 05:30:35;;;;;;;5.70;4.60;;;;;;;20.82;56.46;97564.06;103850;1282;62083;-51
2023/11/08 05:33:02;;;;;;;5.40;4.80;;;;;;;20.82;56.40;97559.00;103878;1279;62647;-51
2023/11/08 05:35:29;;;;;;;4.80;4.20;;;;;;;20.81;56.60;97558.69;103874;1279;75495;-52
2023/11/08 05:37:56;;;;;;;5.60;4.90;;;;;;;20.81;56.67;97556.66;103656;1282;65837;-51
2023/11/08 05:40:24;;;;;;;5.20;4.60;;;;;;;20.81;56.45;97558.69;104025;1279;72956;-52
2023/11/08 05:42:51;;;;;;;6.10;4.40;;;;;;;20.82;56.61;97561.48;103652;1282;62098;-50
2023/11/08 05:45:19;;;;;;;5.30;4.70;;;;;;;20.82;56.53;97563.83;103664;1282;62002;-51
2023/11/08 05:47:46;;;;;;;5.50;4.30;;;;;;;20.83;56.71;97565.85;103732;1282;75228;-51
2023/11/08 05:50:13;;;;;;;5.30;4.50;;;;;;;20.83;56.59;97567.79;103638;1282;66300;-51
2023/11/08 05:52:40;;;;;;;5.40;4.30;;;;;;;20.83;56.54;97559.78;103638;1280;72516;-52
2023/11/08 05:55:07;;;;;;;5.50;4.60;;;;;;;20.83;56.59;97559.55;103531;1280;62008;-51
2023/11/08 05:57:34;;;;;;;5.00;4.50;;;;;;;20.83;56.57;97554.59;103451;1280;62176;-52
2023/11/08 06:00:07;;;;;;;5.00;4.40;;;;;;;20.83;56.63;97558.17;104776;1280;75531;-51
2023/11/08 06:02:35;;;;;;;6.80;4.50;;;;;;;20.84;56.58;97562.38;103667;1282;65955;-52
2023/11/08 06:05:18;;;;;;;5.40;4.50;;;;;;;20.84;56.50;97564.71;103533;1280;72464;-50
2023/11/08 06:07:51;;;;;;;6.10;4.80;;;;;;;20.84;56.58;97574.83;103474;1280;62101;-50
2023/11/08 06:10:20;;;;;;;5.80;4.70;;;;;;;20.85;56.55;97572.95;107151;1279;59776;-51
2023/11/08 06:12:47;;;;;;;4.40;3.90;;;;;;;20.85;56.51;97570.38;104726;1280;73991;-52
2023/11/08 06:15:14;;;;;;;5.30;4.40;;;;;;;20.86;56.58;97572.27;103534;1279;66355;-51
2023/11/08 06:17:41;;;;;;;5.20;4.50;;;;;;;20.87;56.50;97574.92;103677;1280;73646;-50
2023/11/08 06:20:09;;;;;;;5.10;4.60;;;;;;;20.87;56.35;97571.66;107075;1279;61279;-50
2023/11/08 06:22:37;;;;;;;4.80;4.10;;;;;;;20.88;56.55;97573.17;104302;1280;62191;-50
2023/11/08 06:25:04;;;;;;;5.00;4.50;;;;;;;20.89;56.49;97573.42;104311;1282;76605;-49
2023/11/08 06:27:32;;;;;;;6.50;4.40;;;;;;;20.91;56.64;97575.48;104448;1282;67221;-50
2023/11/08 06:30:00;;;;;;;4.80;4.30;;;;;;;20.93;56.62;97573.62;103525;1280;72636;-51
2023/11/08 06:32:29;;;;;;;5.20;4.30;;;;;;;20.95;56.58;97574.34;103674;1280;62155;-48
2023/11/08 06:35:00;;;;;;;4.80;4.00;;;;;;;20.96;56.70;97572.58;103634;1280;62053;-49
2023/11/08 06:37:27;;;;;;;4.40;4.00;;;;;;;20.96;56.66;97576.16;103752;1281;73961;-50
2023/11/08 06:39:55;;;;;;;6.80;4.40;;;;;;;20.97;56.66;97576.56;103835;1277;65224;-51
2023/11/08 06:42:23;;;;;;;5.70;4.80;;;;;;;20.98;56.63;97567.88;103753;1277;72790;-47
2023/11/08 06:44:50;;;;;;;4.50;4.10;;;;;;;20.98;56.58;97566.08;103859;1277;62182;-50
2023/11/08 06:47:18;;;;;;;4.70;4.20;;;;;;;20.99;56.56;97567.41;103794;1280;62156;-50
2023/11/08 06:49:45;;;;;;;5.20;4.40;;;;;;;21.00;56.61;97563.83;103735;1280;75422;-47
2023/11/08 06:52:11;;;;;;;6.10;4.50;;;;;;;21.00;56.54;97563.54;103682;1279;66060;-49
2023/11/08 06:54:39;;;;;;;4.70;4.20;;;;;;;21.01;56.64;97566.11;103594;1279;72624;-50
2023/11/08 06:57:06;;;;;;;6.30;4.40;;;;;;;21.02;56.57;97564.19;103747;1282;63549;-49
2023/11/08 06:59:33;;;;;;;4.60;4.00;;;;;;;21.02;56.54;97566.91;103660;1280;62200;-51
2023/11/08 07:02:02;;;;;;;4.50;4.10;;;;;;;21.03;56.59;97564.66;103575;1280;75604;-50
2023/11/08 07:04:34;;;;;;;5.30;4.20;;;;;;;21.04;56.60;97564.13;103557;1280;68023;-48
2023/11/08 07:07:02;;;;;;;6.30;4.50;;;;;;;21.04;56.62;97572.64;103687;1280;72728;-51
2023/11/08 07:09:31;;;;;;;5.90;4.30;;;;;;;21.05;56.55;97572.58;103641;1281;61291;-52
2023/11/08 07:11:59;;;;;;;5.20;4.00;;;;;;;21.06;56.65;97566.90;104017;1280;62156;-50
2023/11/08 07:14:27;;;;;;;5.10;3.80;;;;;;;21.06;56.76;97558.20;104754;1279;75517;-51
2023/11/08 07:16:55;;;;;;;5.30;4.30;;;;;;;21.07;56.47;97550.52;106736;1280;65628;-51
2023/11/08 07:19:23;;;;;;;4.60;4.20;;;;;;;21.08;56.57;97543.84;106189;1277;72169;-50
2023/11/08 07:21:50;;;;;;;8.10;4.20;;;;;;;21.09;56.54;97542.45;105860;1279;62133;-49
2023/11/08 07:24:17;;;;;;;5.80;3.80;;;;;;;21.12;56.64;97543.66;103805;1280;62210;-49
2023/11/08 07:26:47;;;;;;;8.60;4.40;;;;;;;21.12;56.64;97543.19;103817;1280;76409;-50
2023/11/08 07:29:15;;;;;;;6.60;4.50;;;;;;;21.14;56.46;97541.11;104628;1280;67190;-50
2023/11/08 07:31:43;;;;;;;4.80;4.20;;;;;;;21.15;56.58;97534.27;103777;1280;73843;-49
2023/11/08 07:34:10;;;;;;;9.40;4.10;;;;;;;21.16;56.51;97529.08;104400;1282;62194;-50
2023/11/08 07:36:39;;;;;;;4.80;4.30;;;;;;;21.17;56.47;97531.50;103503;1280;62139;-51
2023/11/08 07:39:06;;;;;;;5.60;4.10;;;;;;;21.18;56.45;97523.41;103562;1280;76687;-48
2023/11/08 07:41:33;;;;;;;5.90;4.40;;;;;;;21.18;56.50;97525.36;103542;1282;66985;-50
2023/11/08 07:44:02;;;;;;;9.40;4.80;;;;;;;21.18;56.57;97525.66;103906;1280;71969;-48
2023/11/08 07:46:30;;;;;;;7.20;4.90;;;;;;;21.18;56.77;97529.87;103713;1284;62737;-50
2023/11/08 07:48:57;;;;;;;11.10;5.20;;;;;;;21.17;56.82;97533.23;103828;1280;62217;-52
2023/11/08 07:51:28;;;;;;;5.80;4.60;;;;;;;21.17;56.90;97541.16;103836;1282;76450;-51
2023/11/08 07:53:59;;;;;;;12.90;5.10;;;;;;;21.17;57.00;97540.99;103684;1282;65242;-51
2023/11/08 07:56:28;;;;;;;9.80;4.20;;;;;;;21.17;56.96;97549.77;103720;1280;71367;-51
2023/11/08 07:58:55;;;;;;;5.90;4.40;;;;;;;21.16;57.11;97540.44;104147;1283;62114;-51
2023/11/08 08:01:22;;;;;;;8.40;4.60;;;;;;;21.16;56.92;97538.19;103734;1280;62199;-52
2023/11/08 08:03:48;;;;;;;8.90;4.90;;;;;;;21.17;57.03;97543.25;103754;1282;76170;-52
2023/11/08 08:06:17;;;;;;;7.90;4.40;;;;;;;21.16;56.96;97548.45;103949;1282;65543;-51
2023/11/08 08:08:44;;;;;;;6.80;4.50;;;;;;;21.16;57.02;97554.38;103488;1283;73463;-51
2023/11/08 08:11:12;;;;;;;6.90;4.60;;;;;;;21.16;56.91;97554.91;103632;1282;62078;-51
2023/11/08 08:13:39;;;;;;;7.40;4.90;;;;;;;21.17;56.94;97553.52;103779;1280;62130;-47
2023/11/08 08:16:06;;;;;;;8.80;5.10;;;;;;;21.17;57.00;97549.33;103410;1280;75472;-42
2023/11/08 08:18:33;;;;;;;9.70;4.70;;;;;;;21.18;56.93;97552.21;103621;1280;67210;-40
2023/11/08 08:21:00;;;;;;;9.50;4.60;;;;;;;21.18;57.32;97554.95;103454;1280;72628;-47
2023/11/08 08:23:26;;;;;;;13.30;4.50;;;;;;;21.22;57.52;97558.02;103644;1283;62044;-43
2023/11/08 08:25:54;;;;;;;11.00;4.90;;;;;;;21.27;57.88;97557.46;103589;1280;62460;-50
2023/11/08 08:28:21;;;;;;;5.30;4.30;;;;;;;21.34;58.38;97561.29;103476;1282;76229;-43
2023/11/08 08:30:47;;;;;;;8.10;4.90;;;;;;;21.41;58.57;97558.73;103575;1280;66991;-43
2023/11/08 08:33:15;;;;;;;5.70;4.40;;;;;;;21.47;58.68;97558.73;103603;1280;74151;-57
2023/11/08 08:35:42;;;;;;;7.10;4.70;;;;;;;21.54;58.72;97560.05;103621;1282;62087;-44
2023/11/08 08:38:08;;;;;;;7.50;4.60;;;;;;;21.60;58.64;97562.55;103469;1279;62120;-41
2023/11/08 08:40:35;;;;;;;7.00;4.30;;;;;;;21.63;58.90;97568.19;103559;1282;76176;-39
2023/11/08 08:43:04;;;;;;;6.20;4.50;;;;;;;21.67;58.75;97574.60;103563;1280;66315;-42
2023/11/08 08:45:31;;;;;;;5.90;4.40;;;;;;;21.70;58.90;97575.35;105783;1279;72483;-45
2023/11/08 08:48:06;;;;;;;8.40;4.10;;;;;;;21.75;58.75;97573.38;102515;1295;601052;-42
2023/11/08 08:50:36;;;;;;;5.40;4.30;;;;;;;21.75;58.78;97571.04;105091;1279;60218;-42
2023/11/08 08:53:04;;;;;;;6.90;4.00;;;;;;;21.77;58.66;97562.59;104789;1269;59317;-41
2023/11/08 08:55:35;;;;;;;10.30;4.70;;;;;;;21.78;58.80;97560.56;105144;1269;73497;-46
2023/11/08 08:58:06;;;;;;;8.50;4.70;;;;;;;21.79;58.69;97557.54;104860;1267;67189;-45
2023/11/08 09:00:35;;;;;;;6.30;4.40;;;;;;;21.80;58.79;97559.65;104894;1270;202993;-44
2023/11/08 09:03:03;;;;;;;8.30;4.50;;;;;;;21.81;58.82;97559.19;104889;1270;61154;-44
2023/11/08 09:05:32;;;;;;;7.60;4.40;;;;;;;21.83;58.76;97558.97;104874;1264;60216;-46
2023/11/08 09:08:02;;;;;;;5.50;3.90;;;;;;;21.81;58.83;97553.90;104870;1265;73255;-42
2023/11/08 09:10:29;;;;;;;5.60;4.20;;;;;;;21.82;59.00;97546.50;105224;1266;66095;-43
2023/11/08 09:12:57;;;;;;;7.50;4.40;;;;;;;21.83;58.90;97546.60;104796;1269;72964;-43
2023/11/08 09:15:32;;;;;;;6.20;4.50;;;;;;;21.84;58.89;97540.87;104853;1270;61007;-42
2023/11/08 09:17:59;;;;;;;5.70;4.00;;;;;;;21.85;58.67;97541.13;104822;1269;60659;-42
2023/11/08 09:20:27;;;;;;;5.00;4.00;;;;;;;21.86;58.98;97536.69;104855;1269;72929;-42
2023/11/08 09:22:55;;;;;;;8.60;4.50;;;;;;;21.87;58.99;97529.91;104930;1269;66032;-43
2023/11/08 09:25:22;;;;;;;6.90;4.70;;;;;;;21.87;58.87;97529.54;104883;1269;73094;-43
2023/11/08 09:27:50;;;;;;;7.80;4.00;;;;;;;21.87;58.98;97532.16;105097;1277;59626;-42
2023/11/08 09:30:18;;;;;;;8.70;4.10;;;;;;;21.87;58.92;97532.40;104831;1269;59950;-44
2023/11/08 09:32:45;;;;;;;7.40;4.20;;;;;;;21.87;58.80;97533.66;105050;1264;74411;-42
2023/11/08 09:35:13;;;;;;;5.90;4.30;;;;;;;21.87;58.92;97532.17;104747;1268;66843;-43
2023/11/08 09:37:40;;;;;;;7.90;4.10;;;;;;;21.88;58.90;97533.97;104777;1270;74218;-44
2023/11/08 09:40:10;;;;;;;7.50;3.90;;;;;;;21.89;59.10;97534.45;104761;1264;61119;-45
2023/11/08 09:42:38;;;;;;;7.40;4.30;;;;;;;21.90;59.02;97536.19;104892;1270;59986;-44
2023/11/08 09:45:11;;;;;;;7.10;3.90;;;;;;;21.92;59.12;97533.08;104745;1267;74050;-43
2023/11/08 09:47:39;;;;;;;6.70;4.30;;;;;;;21.93;58.96;97534.04;105528;1267;67330;-43
2023/11/08 09:50:09;;;;;;;5.70;4.00;;;;;;;21.93;58.86;97533.80;104902;1270;72619;-45
2023/11/08 09:52:37;;;;;;;4.60;3.70;;;;;;;21.93;58.91;97532.32;104977;1264;60414;-43
2023/11/08 09:55:06;;;;;;;4.90;3.60;;;;;;;21.93;58.85;97532.17;104884;1269;61086;-44
2023/11/08 09:57:35;;;;;;;5.70;4.10;;;;;;;21.93;58.60;97535.82;105893;1256;72828;-45
2023/11/08 10:00:03;;;;;;;5.00;4.10;;;;;;;21.93;58.69;97532.94;106737;1251;68655;-44
2023/11/08 10:02:40;;;;;;;6.20;4.10;;;;;;;21.92;58.70;97532.54;108042;1251;71231;-44
2023/11/08 10:05:08;;;;;;;5.40;3.90;;;;;;;21.91;58.73;97530.35;108947;1251;60140;-46
2023/11/08 10:07:39;;;;;;;4.40;3.50;;;;;;;21.92;58.69;97530.97;106105;1251;59645;-45
2023/11/08 10:10:08;;;;;;;6.00;3.90;;;;;;;21.92;58.75;97526.45;106145;1256;74601;-44
2023/11/08 10:12:35;;;;;;;5.40;4.20;;;;;;;21.91;58.74;97524.89;105931;1256;67031;-44
2023/11/08 10:15:06;;;;;;;5.70;3.90;;;;;;;21.91;58.67;97520.05;105699;1258;75424;-45
2023/11/08 10:17:35;;;;;;;5.50;3.90;;;;;;;21.90;58.76;97516.23;105759;1266;60204;-45
2023/11/08 10:20:27;;;;;;;4.90;3.70;;;;;;;21.90;58.81;97517.34;105841;1251;61458;-44
2023/11/08 10:22:54;;;;;;;6.30;3.80;;;;;;;21.91;58.68;97519.13;105717;1257;72130;-44
2023/11/08 10:25:26;;;;;;;4.40;3.70;;;;;;;21.91;58.85;97520.29;106232;1251;65545;-44
2023/11/08 10:28:04;;;;;;;4.40;3.80;;;;;;;21.90;58.70;97517.57;105586;1261;73996;-44
2023/11/08 10:30:38;;;;;;;7.70;3.90;;;;;;;21.90;58.78;97514.84;106104;1251;59739;-46
2023/11/08 10:33:09;;;;;;;5.00;3.70;;;;;;;21.90;59.03;97519.91;105750;1251;61006;-44
2023/11/08 10:35:41;;;;;;;6.00;3.60;;;;;;;21.90;58.77;97522.71;107317;1251;73870;-44
2023/11/08 10:38:11;;;;;;;6.30;3.90;;;;;;;21.91;58.87;97521.69;105812;1256;67360;-44
2023/11/08 10:40:40;;;;;;;5.40;3.70;;;;;;;21.91;59.01;97526.21;105802;1257;72502;-44
2023/11/08 10:43:08;;;;;;;6.20;3.80;;;;;;;21.90;59.04;97524.95;105559;1257;61406;-45
2023/11/08 10:45:37;;;;;;;6.30;3.50;;;;;;;21.90;58.75;97525.89;106084;1251;60629;-45
2023/11/08 10:48:05;;;;;;;6.10;3.60;;;;;;;21.90;58.86;97523.88;105570;1251;74115;-46
2023/11/08 10:50:32;;;;;;;5.00;3.60;;;;;;;21.90;58.83;97519.42;106018;1256;66209;-47
2023/11/08 10:53:00;;;;;;;5.50;3.50;;;;;;;21.90;58.89;97520.84;105668;1251;73680;-47
2023/11/08 10:55:27;;;;;;;6.50;3.80;;;;;;;21.90;58.69;97524.02;106167;1257;59653;-46
2023/11/08 10:57:58;;;;;;;5.60;3.70;;;;;;;21.90;58.75;97527.61;105482;1257;59867;-45
2023/11/08 11:00:26;;;;;;;5.80;3.40;;;;;;;21.90;59.03;97526.29;105855;1251;73149;-44
2023/11/08 11:02:58;;;;;;;9.00;3.70;;;;;;;21.92;59.34;97530.66;105670;1256;66882;-42
2023/11/08 11:05:28;;;;;;;4.80;3.20;;;;;;;21.93;59.59;97527.73;106138;1253;71777;-43
2023/11/08 11:08:01;;;;;;;5.80;3.20;;;;;;;21.96;59.71;97531.09;105692;1254;61467;-43
2023/11/08 11:10:41;;;;;;;4.60;3.20;;;;;;;21.97;59.94;97531.73;105719;1251;61851;-39
2023/11/08 11:14:15;;;;;;;6.00;3.50;;;;;;;21.99;59.90;97535.56;105701;1257;73914;-45
2023/11/08 11:16:49;;;;;;;4.00;3.00;;;;;;;22.00;59.95;97538.62;105742;1258;64818;-46
2023/11/08 11:19:22;;;;;;;5.50;3.30;;;;;;;22.02;59.92;97540.10;105578;1251;72433;-44
2023/11/08 11:21:54;;;;;;;5.60;3.50;;;;;;;22.03;60.01;97539.66;105652;1253;60789;-44
2023/11/08 11:24:39;;;;;;;8.00;3.70;;;;;;;22.04;59.87;97541.46;105736;1251;61653;-46
2023/11/08 11:27:08;;;;;;;4.10;3.10;;;;;;;22.06;59.69;97548.23;105696;1257;72683;-48
2023/11/08 11:29:35;;;;;;;7.50;3.40;;;;;;;22.07;59.94;97547.73;105742;1251;64842;-47